Time;durP1;ratioP1;P1;durP2;ratioP2;P2;SDS_P1;SDS_P2;PMS_P1;PMS_P2;Temp;Humidity;BMP_temperature;BMP_pressure;BME280_temperature;BME280_humidity;BME280_pressure;Samples;Min_cycle;Max_cycle;Signal;HPM_P1;HPM_P2
2022/05/29 00:00:14;;;;;;;;;1.67;1.00;;;;;13.75;48.63;101113.69;4860871;29;45350;-86
2022/05/29 00:02:40;;;;;;;;;1.00;1.00;;;;;13.82;49.51;101120.00;4860151;29;45684;-86
2022/05/29 00:05:09;;;;;;;;;0.00;0.00;;;;;13.90;49.05;101133.41;4842700;29;45529;-86
2022/05/29 00:07:35;;;;;;;;;1.00;1.00;;;;;13.82;49.17;101127.13;4842949;29;44830;-87
2022/05/29 00:10:04;;;;;;;;;0.33;0.33;;;;;13.70;49.36;101107.44;4859439;29;44755;-86
2022/05/29 00:12:30;;;;;;;;;1.00;1.00;;;;;13.67;49.30;101107.38;4856604;29;46921;-86
2022/05/29 00:14:58;;;;;;;;;1.00;1.00;;;;;13.64;50.20;101112.72;4857314;29;45404;-87
2022/05/29 00:18:20;;;;;;;;;1.00;1.00;;;;;13.77;50.01;101117.25;4840515;29;45503;-87
2022/05/29 00:20:50;;;;;;;;;2.00;2.00;;;;;13.74;49.44;101121.72;4840702;29;45015;-87
2022/05/29 00:23:16;;;;;;;;;2.67;2.67;;;;;13.67;49.27;101109.19;4838305;29;46977;-86
2022/05/29 00:25:46;;;;;;;;;2.00;1.00;;;;;13.74;49.24;101117.25;4853297;29;45597;-87
2022/05/29 00:28:11;;;;;;;;;1.00;1.00;;;;;13.70;49.39;101115.44;4853075;29;45392;-87
2022/05/29 00:30:42;;;;;;;;;2.00;2.00;;;;;13.50;49.62;101082.34;4854434;29;45660;-87
2022/05/29 00:33:08;;;;;;;;;1.00;1.00;;;;;13.68;49.88;101122.56;4853641;29;46823;-87
2022/05/29 00:35:37;;;;;;;;;1.00;1.00;;;;;13.59;49.90;101103.75;4839025;29;45793;-86
2022/05/29 00:38:03;;;;;;;;;3.00;2.00;;;;;13.63;49.83;101121.63;4840320;29;44773;-87
2022/05/29 00:40:34;;;;;;;;;1.00;1.00;;;;;13.60;50.04;101113.59;4854413;29;45482;-86
2022/05/29 00:43:00;;;;;;;;;2.00;2.00;;;;;13.48;51.15;101102.81;4839818;29;45529;-86
2022/05/29 00:45:28;;;;;;;;;1.00;1.00;;;;;13.18;50.67;101061.56;4853734;29;45820;-86
2022/05/29 00:47:54;;;;;;;;;1.00;1.00;;;;;13.36;50.24;101104.47;4840508;29;45157;-87
2022/05/29 00:50:22;;;;;;;;;0.33;0.33;;;;;13.14;51.01;101059.75;4855002;29;45881;-87
2022/05/29 00:52:48;;;;;;;;;1.00;1.00;;;;;13.35;50.42;101092.03;4840972;29;45468;-87
2022/05/29 00:55:21;;;;;;;;;1.00;1.00;;;;;13.40;50.34;101100.97;4839953;29;44773;-86
2022/05/29 00:57:52;;;;;;;;;0.67;0.67;;;;;13.32;50.65;101101.78;4855127;29;44870;-87
2022/05/29 01:00:25;;;;;;;;;2.00;2.00;;;;;13.29;50.76;101101.72;4845706;29;45422;-87
2022/05/29 01:02:55;;;;;;;;;1.00;1.00;;;;;13.38;50.58;101109.84;4857466;29;47239;-87
2022/05/29 01:05:26;;;;;;;;;1.00;1.00;;;;;13.18;50.96;101081.16;4856602;29;45367;-88
2022/05/29 01:08:19;;;;;;;;;1.00;1.00;;;;;13.38;52.53;101116.06;4855789;29;45435;-86
2022/05/29 01:10:53;;;;;;;;;2.00;2.00;;;;;13.37;50.91;101105.38;4856613;29;45393;-86
2022/05/29 01:13:36;;;;;;;;;1.00;1.00;;;;;13.32;51.25;101104.44;4856340;29;47073;-87
2022/05/29 01:16:27;;;;;;;;;1.00;1.00;;;;;13.29;51.49;101110.69;4857457;29;45402;-87
2022/05/29 01:19:11;;;;;;;;;1.33;1.33;;;;;13.24;52.83;101109.69;4856917;29;45444;-86
2022/05/29 01:21:49;;;;;;;;;0.67;0.67;;;;;13.22;52.21;101100.78;4841780;29;44874;-86
2022/05/29 01:24:56;;;;;;;;;2.00;2.00;;;;;13.18;51.93;101098.94;4856016;29;47087;-86
2022/05/29 01:27:40;;;;;;;;;3.00;1.00;;;;;13.12;52.70;101094.44;4857075;29;44845;-87
2022/05/29 01:30:21;;;;;;;;;3.00;3.00;;;;;12.99;53.70;101073.88;4858233;29;45348;-87
2022/05/29 01:33:05;;;;;;;;;2.00;2.00;;;;;13.06;52.78;101088.16;4858167;29;44921;-86
2022/05/29 01:35:41;;;;;;;;;2.00;1.33;;;;;12.97;55.32;101092.53;4856491;29;47344;-86
2022/05/29 01:38:31;;;;;;;;;1.67;1.00;;;;;12.97;54.42;101078.28;4855754;29;45926;-87
2022/05/29 01:41:03;;;;;;;;;1.00;1.00;;;;;12.94;54.55;101083.59;4839320;29;44877;-87
2022/05/29 01:43:48;;;;;;;;;2.00;2.00;;;;;12.81;54.38;101077.25;4856876;29;45425;-87
2022/05/29 01:46:18;;;;;;;;;1.33;1.33;;;;;12.82;53.76;101089.69;4855206;29;47367;-87
2022/05/29 01:49:01;;;;;;;;;1.00;1.00;;;;;12.87;54.31;101082.66;4855404;29;45375;-87
2022/05/29 01:51:39;;;;;;;;;3.67;1.00;;;;;12.79;54.87;101073.66;4854731;29;46016;-87
2022/05/29 01:54:12;;;;;;;;;1.00;0.33;;;;;12.79;56.69;101090.56;4854382;29;45269;-85
2022/05/29 01:56:44;;;;;;;;;3.00;1.33;;;;;12.80;55.12;101086.13;4854131;29;48035;-87
2022/05/29 01:59:17;;;;;;;;;2.00;2.00;;;;;12.46;55.28;101034.16;4855767;29;45801;-86
2022/05/29 02:01:50;;;;;;;;;4.00;2.00;;;;;12.41;56.95;101039.44;4858015;29;44764;-86
2022/05/29 02:04:20;;;;;;;;;3.00;1.00;;;;;12.51;56.00;101069.81;4866378;29;45284;-86
2022/05/29 02:10:07;;;;;;;;;2.00;1.33;;;;;12.48;55.88;101061.75;4875599;29;45461;-88
2022/05/29 02:12:41;;;;;;;;;3.33;2.00;;;;;12.56;58.29;101093.00;4820250;29;44791;-88
2022/05/29 02:15:14;;;;;;;;;3.00;3.00;;;;;12.53;56.69;101082.28;4805043;29;45439;-86
2022/05/29 02:17:42;;;;;;;;;1.67;1.67;;;;;12.35;57.47;101060.72;4818437;29;47156;-86
2022/05/29 02:20:13;;;;;;;;;2.33;2.33;;;;;12.46;56.89;101082.19;4819295;29;45574;-88
2022/05/29 02:22:41;;;;;;;;;1.33;1.33;;;;;12.25;59.46;101053.50;4818716;29;44895;-87
2022/05/29 02:25:06;;;;;;;;;1.00;1.00;;;;;12.35;57.92;101082.06;4818288;29;45818;-87
2022/05/29 02:31:32;;;;;;;;;3.67;3.67;;;;;12.31;58.65;101081.13;4783483;29;44920;-86
2022/05/29 02:34:09;;;;;;;;;1.00;1.00;;;;;12.28;57.86;101080.19;4766669;29;45287;-87
2022/05/29 02:36:45;;;;;;;;;2.00;2.00;;;;;12.24;59.14;101073.94;4782042;29;44860;-86
2022/05/29 02:39:11;;;;;;;;;2.00;2.00;;;;;12.19;58.09;101071.19;4767481;29;47456;-85
2022/05/29 02:41:55;;;;;;;;;2.67;2.67;;;;;12.13;58.26;101059.56;4784095;29;45637;-88
2022/05/29 02:44:24;;;;;;;;;2.67;2.00;;;;;12.19;58.39;101071.19;4785002;29;44941;-88
2022/05/29 02:47:02;;;;;;;;;2.00;1.00;;;;;12.17;59.71;101062.28;4784244;29;45729;-87
2022/05/29 02:49:48;;;;;;;;;3.00;3.00;;;;;12.11;60.36;101064.88;4823450;29;46853;-87
2022/05/29 02:52:17;;;;;;;;;5.33;2.33;;;;;12.09;58.82;101073.72;4858088;29;44925;-87
2022/05/29 02:54:42;;;;;;;;;1.33;1.33;;;;;11.98;59.82;101065.59;4842545;29;45350;-86
2022/05/29 02:57:08;;;;;;;;;2.33;2.33;;;;;11.90;59.62;101048.59;4836339;29;45351;-86
2022/05/29 02:59:46;;;;;;;;;3.00;3.00;;;;;12.01;61.57;101062.94;4859924;29;46981;-86
2022/05/29 03:02:33;;;;;;;;;1.00;1.00;;;;;11.99;60.03;101064.69;4858713;29;44954;-87
2022/05/29 03:05:24;;;;;;;;;2.67;2.67;;;;;11.97;59.55;101050.47;4856419;29;45231;-86
2022/05/29 03:08:25;;;;;;;;;2.00;2.00;;;;;12.00;59.82;101053.19;4839340;29;45523;-86
2022/05/29 03:11:14;;;;;;;;;2.00;2.00;;;;;12.00;59.27;101050.53;4817996;29;45598;-86
2022/05/29 03:13:53;;;;;;;;;2.33;2.33;;;;;11.88;59.07;101029.00;4818907;29;45380;-86
2022/05/29 03:16:33;;;;;;;;;2.67;1.00;;;;;11.98;59.24;101054.94;4802699;29;45447;-85
2022/05/29 03:19:32;;;;;;;;;1.67;1.67;;;;;11.92;59.95;101041.53;4814921;29;45422;-86
2022/05/29 03:22:26;;;;;;;;;2.00;2.00;;;;;11.95;58.84;101054.88;4814195;29;46645;-86
2022/05/29 03:25:28;;;;;;;;;3.00;3.00;;;;;11.87;59.42;101044.06;4814628;29;45978;-86
2022/05/29 03:27:57;;;;;;;;;3.33;3.33;;;;;11.66;60.42;101010.03;4802756;29;45457;-86
2022/05/29 03:30:35;;;;;;;;;3.00;3.00;;;;;11.87;60.49;101045.84;4818806;29;44865;-85
2022/05/29 03:33:04;;;;;;;;;4.00;2.00;;;;;11.81;60.00;101047.56;4818439;29;45556;-86
2022/05/29 03:35:36;;;;;;;;;4.67;3.00;;;;;11.73;60.10;101038.53;4820037;29;45544;-86
2022/05/29 03:38:04;;;;;;;;;2.00;2.00;;;;;11.68;61.30;101039.38;4804322;29;44776;-86
2022/05/29 03:40:32;;;;;;;;;2.67;2.67;;;;;11.71;61.19;101039.41;4805731;29;45597;-85
2022/05/29 03:42:57;;;;;;;;;3.00;3.00;;;;;11.63;59.93;101030.41;4799684;29;46944;-86
2022/05/29 03:45:24;;;;;;;;;2.00;2.00;;;;;11.59;63.13;101042.78;4801862;29;45542;-85
2022/05/29 03:47:50;;;;;;;;;3.00;3.00;;;;;11.49;61.12;101044.44;4857798;29;44770;-86
2022/05/29 03:50:18;;;;;;;;;2.67;2.00;;;;;11.42;62.06;101026.56;4857088;29;45356;-86
2022/05/29 03:52:45;;;;;;;;;2.00;2.00;;;;;11.48;62.61;101042.63;4856987;29;45509;-86
2022/05/29 03:55:14;;;;;;;;;3.00;2.00;;;;;11.50;63.54;101035.56;4855931;29;45312;-86
2022/05/29 03:57:39;;;;;;;;;2.00;2.00;;;;;11.45;61.46;101039.03;4854703;29;45491;-85
2022/05/29 04:00:07;;;;;;;;;3.67;3.00;;;;;11.39;61.83;101027.44;4854424;29;45639;-86
2022/05/29 04:02:33;;;;;;;;;1.33;1.33;;;;;11.43;63.05;101036.34;4854153;29;46503;-86
2022/05/29 04:04:59;;;;;;;;;4.00;2.00;;;;;11.43;63.19;101035.44;4853773;29;45386;-86
2022/05/29 04:12:03;;;;;;;;;3.00;3.00;;;;;11.39;62.93;101034.50;4853251;29;45658;-86
2022/05/29 04:12:55;;;;;;;;;2.33;2.00;;;;;11.43;62.29;101030.13;4855895;29;45895;-87
2022/05/29 04:15:21;;;;;;;;;3.00;3.00;;;;;11.45;64.07;101037.25;4855317;29;45976;-86
2022/05/29 04:17:46;;;;;;;;;2.00;2.00;;;;;11.36;62.38;101027.34;4856790;29;45841;-87
2022/05/29 04:20:12;;;;;;;;;2.00;2.00;;;;;11.39;63.04;101027.44;4855933;29;45671;-86
2022/05/29 04:22:37;;;;;;;;;2.00;2.00;;;;;11.45;62.49;101039.03;4857963;29;45641;-86
2022/05/29 04:25:03;;;;;;;;;3.00;3.00;;;;;11.35;62.57;101009.59;4859502;29;45359;-86
2022/05/29 04:27:29;;;;;;;;;3.33;2.67;;;;;11.27;62.97;100997.03;4857280;29;45355;-86
2022/05/29 04:29:54;;;;;;;;;2.67;2.00;;;;;11.55;62.27;101009.91;4843937;29;44849;-86
2022/05/29 04:35:04;;;;;;;;;2.00;2.00;;;;;11.78;62.30;101031.53;4857922;29;45478;-86
2022/05/29 04:37:29;;;;;;;;;2.00;2.00;;;;;11.77;62.21;101024.41;4857147;29;45512;-86
2022/05/29 04:39:55;;;;;;;;;2.67;2.67;;;;;11.71;62.17;101011.00;4857381;29;45471;-87
2022/05/29 04:42:20;;;;;;;;;4.67;3.00;;;;;11.81;62.64;101023.59;4858476;29;45568;-87
2022/05/29 04:44:46;;;;;;;;;3.33;2.00;;;;;11.68;61.67;101004.75;4862532;29;45389;-86
2022/05/29 04:47:11;;;;;;;;;2.67;2.67;;;;;11.95;61.91;101026.44;4861621;29;45260;-87
2022/05/29 04:49:38;;;;;;;;;1.00;1.00;;;;;12.04;61.33;101017.69;4861074;29;45435;-86
2022/05/29 04:52:09;;;;;;;;;2.00;2.00;;;;;12.04;62.28;101006.09;4855808;29;47419;-87
2022/05/29 04:54:38;;;;;;;;;4.00;3.00;;;;;12.19;61.72;101027.63;4845091;29;45398;-87
2022/05/29 04:57:08;;;;;;;;;3.33;2.00;;;;;12.04;61.51;100985.72;4844325;29;45419;-87
2022/05/29 04:59:34;;;;;;;;;4.00;4.00;;;;;12.14;60.96;100987.59;4858754;29;45594;-86
2022/05/29 05:02:01;;;;;;;;;2.00;2.00;;;;;12.47;60.81;101012.84;4844542;29;46762;-87
2022/05/29 05:04:27;;;;;;;;;2.33;2.33;;;;;12.59;60.55;101012.09;4847850;29;45322;-85
2022/05/29 05:06:59;;;;;;;;;4.00;3.00;;;;;12.64;61.05;100993.44;4859492;29;45312;-87
2022/05/29 05:09:26;;;;;;;;;2.00;2.00;;;;;12.53;60.09;100972.88;4859041;29;45438;-86
2022/05/29 05:11:52;;;;;;;;;2.00;2.00;;;;;12.85;59.42;100992.75;4842160;29;46873;-87
2022/05/29 05:14:19;;;;;;;;;2.67;2.67;;;;;12.99;59.81;101012.47;4841579;29;45323;-86
2022/05/29 05:16:46;;;;;;;;;2.67;2.67;;;;;13.11;59.51;101014.31;4842762;29;45357;-88
2022/05/29 05:19:11;;;;;;;;;2.00;2.00;;;;;13.15;59.75;101018.81;4842512;29;45472;-87
2022/05/29 05:21:38;;;;;;;;;3.00;3.00;;;;;13.09;58.75;100998.31;4842288;29;46585;-87
2022/05/29 05:24:05;;;;;;;;;4.33;4.00;;;;;13.02;58.56;100975.97;4861199;29;45372;-87
2022/05/29 05:26:31;;;;;;;;;2.67;2.67;;;;;13.33;58.73;101010.97;4860702;29;44737;-87
2022/05/29 05:28:57;;;;;;;;;3.00;3.00;;;;;13.37;58.41;101023.47;4862004;29;45410;-87
2022/05/29 05:31:24;;;;;;;;;2.00;2.00;;;;;13.43;58.05;101025.28;4858591;29;47864;-87
2022/05/29 05:33:51;;;;;;;;;2.00;2.00;;;;;13.40;57.80;101023.47;4827101;29;45273;-87
2022/05/29 05:36:18;;;;;;;;;1.00;1.00;;;;;13.13;57.52;100961.84;4858649;29;44856;-86
2022/05/29 05:38:44;;;;;;;;;2.00;2.00;;;;;13.35;58.07;100984.25;4841623;29;45592;-86
2022/05/29 05:41:10;;;;;;;;;4.00;3.00;;;;;13.56;57.71;101020.91;4856098;29;47067;-87
2022/05/29 05:43:36;;;;;;;;;3.33;3.33;;;;;13.30;57.25;100978.88;4836733;29;45818;-87
2022/05/29 05:46:09;;;;;;;;;3.33;2.00;;;;;13.70;57.13;101024.56;4853411;29;45391;-86
2022/05/29 05:48:36;;;;;;;;;2.00;2.00;;;;;13.67;56.67;101003.16;4838130;29;44820;-86
2022/05/29 05:51:03;;;;;;;;;2.00;2.00;;;;;13.92;56.83;101019.34;4856120;29;45518;-86
2022/05/29 05:53:28;;;;;;;;;3.00;2.33;;;;;13.69;56.33;100973.78;4854307;29;44859;-87
2022/05/29 05:55:55;;;;;;;;;2.00;2.00;;;;;14.05;55.87;101005.13;4838278;29;44798;-87
2022/05/29 05:58:21;;;;;;;;;3.67;2.00;;;;;14.18;55.51;101023.03;4854514;29;45378;-86
2022/05/29 06:00:48;;;;;;;;;2.00;2.00;;;;;14.26;55.63;101019.47;4834532;29;47249;-86
2022/05/29 06:03:14;;;;;;;;;3.67;3.67;;;;;14.39;55.22;101032.00;4835759;29;45411;-87
2022/05/29 06:05:40;;;;;;;;;1.67;1.67;;;;;14.28;54.73;100985.56;4849669;29;45405;-87
2022/05/29 06:08:06;;;;;;;;;1.67;1.33;;;;;14.36;54.65;100989.16;4850380;29;45457;-87
2022/05/29 06:10:32;;;;;;;;;1.67;1.67;;;;;14.35;54.80;100982.03;4835558;29;45559;-87
2022/05/29 06:13:06;;;;;;;;;4.00;2.33;;;;;14.56;54.03;101013.34;4839400;29;45431;-87
2022/05/29 06:15:32;;;;;;;;;2.00;2.00;;;;;14.51;53.95;100988.31;4856116;29;45359;-87
2022/05/29 06:17:57;;;;;;;;;4.00;1.00;;;;;14.41;53.75;100957.97;4855590;29;45482;-87
2022/05/29 06:20:24;;;;;;;;;3.00;2.67;;;;;14.55;53.34;100980.28;4855762;29;46855;-87
2022/05/29 06:22:50;;;;;;;;;2.67;2.67;;;;;14.67;52.79;101000.00;4855251;29;45650;-87
2022/05/29 06:25:17;;;;;;;;;3.00;1.33;;;;;14.68;52.98;100991.03;4854103;29;45939;-87
2022/05/29 06:27:44;;;;;;;;;1.33;1.00;;;;;14.59;52.79;100966.06;4838487;29;44811;-87
2022/05/29 06:30:13;;;;;;;;;0.00;0.00;;;;;14.83;52.94;100998.22;4857337;29;47941;-87
2022/05/29 06:32:39;;;;;;;;;1.00;1.00;;;;;14.78;52.56;100998.19;4841634;29;45695;-88
2022/05/29 06:35:07;;;;;;;;;3.00;2.00;;;;;14.90;52.59;101006.22;4840449;29;45394;-87
2022/05/29 06:37:33;;;;;;;;;3.00;1.00;;;;;14.87;52.10;101008.94;4857305;29;44769;-86
2022/05/29 06:39:58;;;;;;;;;2.00;2.00;;;;;14.73;51.99;101002.66;4857318;29;45569;-87
2022/05/29 06:42:25;;;;;;;;;2.33;1.00;;;;;14.60;52.22;101001.75;4857552;29;45443;-86
2022/05/29 06:44:50;;;;;;;;;9.33;3.67;;;;;14.62;52.66;101001.75;4854943;29;45209;-86
2022/05/29 06:47:18;;;;;;;;;3.33;2.67;;;;;14.72;51.88;100990.16;4853832;29;45451;-86
2022/05/29 06:49:47;;;;;;;;;2.00;2.00;;;;;14.73;51.77;100997.31;4853336;29;46793;-86
2022/05/29 06:52:18;;;;;;;;;1.67;1.67;;;;;14.59;51.91;100975.88;4853630;29;45441;-86
2022/05/29 06:54:44;;;;;;;;;2.33;2.00;;;;;14.94;51.53;100981.25;4855868;29;44761;-87
2022/05/29 06:57:12;;;;;;;;;3.00;1.33;;;;;15.07;51.48;100974.13;4870391;29;45216;-86
2022/05/29 07:08:01;;;;;;;;;1.67;1.67;;;;;15.47;49.10;100999.94;4833775;29;44967;-87
2022/05/29 07:10:31;;;;;;;;;1.00;1.00;;;;;15.46;49.34;100984.78;4834146;29;45526;-87
2022/05/29 07:12:58;;;;;;;;;1.00;1.00;;;;;15.63;48.92;100974.00;4834370;29;45339;-87
2022/05/29 07:15:24;;;;;;;;;2.00;1.00;;;;;15.67;48.38;100965.03;4819763;29;44794;-86
2022/05/29 07:17:50;;;;;;;;;0.67;0.67;;;;;15.58;47.15;100952.56;4834716;29;45462;-86
2022/05/29 07:20:16;;;;;;;;;1.00;1.00;;;;;15.85;47.20;101007.03;4834412;29;45667;-86
2022/05/29 07:22:43;;;;;;;;;2.33;2.33;;;;;15.98;48.09;100998.06;4839120;29;45648;-87
2022/05/29 07:28:30;;;;;;;;;1.67;0.67;;;;;16.27;45.58;100979.13;4837273;29;44878;-87
2022/05/29 07:30:56;;;;;;;;;1.67;1.00;;;;;16.47;44.89;100991.53;4822714;29;46995;-87
2022/05/29 07:33:23;;;;;;;;;1.00;1.00;;;;;16.60;44.82;100986.09;4820446;29;45426;-87
2022/05/29 07:35:48;;;;;;;;;0.33;0.33;;;;;16.45;43.98;100975.44;4837478;29;45355;-87
2022/05/29 07:38:14;;;;;;;;;0.00;0.00;;;;;16.70;44.32;100986.88;4836275;29;44854;-87
2022/05/29 07:40:45;;;;;;;;;2.00;1.00;;;;;16.70;43.29;100988.69;4822012;29;48347;-87
2022/05/29 07:43:22;;;;;;;;;1.67;1.67;;;;;16.43;44.18;100966.50;4822298;29;45424;-87
2022/05/29 07:45:47;;;;;;;;;2.00;2.00;;;;;16.24;43.34;100983.59;4871582;29;44947;-86
2022/05/29 07:48:15;;;;;;;;;1.33;1.33;;;;;16.02;44.64;100932.75;4865052;29;44883;-86
2022/05/29 07:50:45;;;;;;;;;1.00;1.00;;;;;16.23;43.94;100982.72;4864920;29;46580;-86
2022/05/29 07:53:10;;;;;;;;;1.00;1.00;;;;;15.89;44.50;100976.63;4865846;29;45410;-86
2022/05/29 07:55:39;;;;;;;;;1.33;1.33;;;;;15.49;44.77;100942.78;4881700;29;44714;-86
2022/05/29 07:58:06;;;;;;;;;1.33;1.33;;;;;15.60;45.03;100986.50;4862103;29;45510;-87
2022/05/29 08:00:36;;;;;;;;;2.00;2.00;;;;;15.77;45.13;100983.84;4862746;29;47668;-86
2022/05/29 08:03:03;;;;;;;;;2.33;1.00;;;;;15.80;44.98;100994.53;4861925;29;45549;-87
2022/05/29 08:05:31;;;;;;;;;2.00;1.00;;;;;15.52;43.19;100947.22;4857730;29;45482;-86
2022/05/29 08:07:58;;;;;;;;;3.00;1.00;;;;;15.75;43.70;100965.94;4858259;29;45782;-87
2022/05/29 08:10:25;;;;;;;;;0.67;0.67;;;;;15.73;42.50;100933.75;4858425;29;47011;-87
2022/05/29 08:12:51;;;;;;;;;0.00;0.00;;;;;16.02;42.26;100970.31;4859976;29;45183;-87
2022/05/29 08:15:17;;;;;;;;;2.00;2.00;;;;;16.44;42.56;100979.03;4858393;29;45539;-87
2022/05/29 08:17:43;;;;;;;;;1.00;1.00;;;;;16.69;42.15;100976.19;4858605;29;44748;-87
2022/05/29 08:20:12;;;;;;;;;0.67;0.67;;;;;16.64;42.58;100956.50;4857232;29;46771;-87
2022/05/29 08:22:37;;;;;;;;;3.00;2.00;;;;;16.47;43.07;100976.31;4842144;29;45422;-86
2022/05/29 08:30:38;;;;;;;;;0.00;0.00;;;;;16.07;43.38;100981.91;4857534;29;45750;-86
2022/05/29 08:33:37;;;;;;;;;1.67;1.00;;;;;15.90;43.77;100967.69;4855092;29;45471;-87
2022/05/29 08:36:15;;;;;;;;;3.00;1.00;;;;;15.63;44.17;100936.47;4821317;29;44756;-86
2022/05/29 08:39:18;;;;;;;;;1.00;0.00;;;;;15.80;44.38;100970.41;4817227;29;45345;-86
2022/05/29 08:41:50;;;;;;;;;0.67;0.67;;;;;15.84;43.79;100962.34;4838962;29;46581;-87
2022/05/29 08:44:51;;;;;;;;;0.67;0.00;;;;;15.89;43.61;100965.91;4823506;29;45453;-87
2022/05/29 08:47:24;;;;;;;;;1.00;1.00;;;;;16.12;43.26;100955.06;4824773;29;45307;-86
2022/05/29 08:49:50;;;;;;;;;1.00;1.00;;;;;16.24;42.78;100951.41;4805530;29;45292;-86
2022/05/29 08:52:15;;;;;;;;;1.67;1.00;;;;;16.37;41.44;100959.38;4834870;29;45266;-87
2022/05/29 08:54:46;;;;;;;;;1.00;1.00;;;;;16.42;42.34;100951.31;4819915;29;45530;-87
2022/05/29 08:57:46;;;;;;;;;0.33;0.33;;;;;16.26;40.66;100923.69;4834041;29;45430;-87
2022/05/29 09:00:30;;;;;;;;;1.33;1.33;;;;;16.38;40.98;100954.88;4818618;29;45744;-86
2022/05/29 09:03:26;;;;;;;;;2.00;1.67;;;;;16.40;41.26;100947.72;4817079;29;48023;-87
2022/05/29 09:06:13;;;;;;;;;1.00;1.00;;;;;16.55;41.41;100936.88;4818349;29;45430;-87
2022/05/29 09:09:43;;;;;;;;;1.67;1.67;;;;;16.65;41.86;100934.16;4834069;29;45526;-86
2022/05/29 09:12:37;;;;;;;;;1.00;1.00;;;;;16.74;41.96;100936.75;4716741;30;45606;-86
2022/05/29 09:15:09;;;;;;;;;1.00;1.00;;;;;16.68;41.36;100939.47;4709316;30;47336;-87
2022/05/29 09:17:55;;;;;;;;;1.00;1.00;;;;;16.62;40.90;100920.72;4726296;30;44809;-86
2022/05/29 09:20:23;;;;;;;;;0.67;0.67;;;;;16.79;40.99;100934.91;4712662;30;45509;-86
2022/05/29 09:22:49;;;;;;;;;1.00;1.00;;;;;16.89;40.98;100925.91;4716055;29;45322;-86
2022/05/29 09:25:27;;;;;;;;;1.33;1.33;;;;;16.98;40.84;100933.88;4731324;29;45447;-86
2022/05/29 09:27:52;;;;;;;;;1.33;1.00;;;;;16.95;40.20;100923.16;4717240;29;45763;-87
2022/05/29 09:30:19;;;;;;;;;3.67;0.00;;;;;16.82;40.87;100928.66;4717133;29;45347;-87
2022/05/29 09:32:56;;;;;;;;;1.67;1.67;;;;;16.75;41.05;100922.41;4718292;29;45450;-87
2022/05/29 09:35:35;;;;;;;;;1.00;1.00;;;;;16.42;41.68;100872.56;4718190;29;47361;-87
2022/05/29 09:38:29;;;;;;;;;1.00;1.00;;;;;16.54;40.68;100905.59;4717197;29;45335;-86
2022/05/29 09:41:07;;;;;;;;;2.00;2.00;;;;;16.61;40.98;100914.47;4728902;29;44924;-86
2022/05/29 09:43:34;;;;;;;;;2.00;1.00;;;;;16.51;41.12;100889.47;4714077;30;45765;-85
2022/05/29 09:46:21;;;;;;;;;0.33;0.33;;;;;16.73;40.39;100919.75;4713521;29;47371;-87
2022/05/29 09:51:50;;;;;;;;;3.00;2.00;;;;;16.55;40.84;100926.16;4856043;29;45504;-86
2022/05/29 09:54:55;;;;;;;;;1.00;1.00;;;;;16.48;40.36;100915.47;4838922;29;45540;-87
2022/05/29 09:57:38;;;;;;;;;1.00;1.00;;;;;16.28;40.58;100876.25;4837431;29;46992;-86
2022/05/29 10:00:13;;;;;;;;;3.00;1.33;;;;;16.24;40.68;100876.25;4854374;29;45471;-87
2022/05/29 10:02:42;;;;;;;;;1.00;1.00;;;;;16.40;40.94;100900.31;4823010;29;45428;-87
2022/05/29 10:05:36;;;;;;;;;2.00;2.00;;;;;16.54;40.63;100902.91;4845942;29;44849;-87
2022/05/29 10:08:27;;;;;;;;;2.00;2.00;;;;;16.79;40.59;100895.50;4840556;29;46492;-88
2022/05/29 10:10:52;;;;;;;;;1.00;1.00;;;;;17.03;40.19;100887.25;4855720;29;45364;-87
2022/05/29 10:13:39;;;;;;;;;4.00;2.67;;;;;17.36;40.13;100876.13;4856187;29;45431;-87
2022/05/29 10:16:06;;;;;;;;;1.67;0.67;;;;;17.84;39.85;100880.09;4841028;29;45407;-87
2022/05/29 10:18:39;;;;;;;;;2.00;2.00;;;;;18.11;38.08;100887.72;4855881;29;46784;-87
2022/05/29 10:21:21;;;;;;;;;2.00;2.00;;;;;18.04;38.50;100882.47;4839982;29;45429;-87
2022/05/29 10:24:21;;;;;;;;;1.33;1.33;;;;;17.85;38.65;100881.84;4839255;29;45407;-86
2022/05/29 10:26:57;;;;;;;;;1.33;1.00;;;;;17.72;38.19;100892.72;4851959;29;45187;-86
2022/05/29 10:32:45;;;;;;;;;1.67;1.00;;;;;17.49;39.36;100867.91;4856600;29;45333;-86
2022/05/29 10:35:22;;;;;;;;;2.67;2.00;;;;;17.49;38.67;100884.06;4840114;29;45469;-87
2022/05/29 10:37:48;;;;;;;;;1.00;1.00;;;;;17.40;39.51;100902.09;4840213;29;45371;-87
2022/05/29 10:40:31;;;;;;;;;2.00;2.00;;;;;17.32;39.89;100881.59;4853799;29;45618;-86
2022/05/29 10:43:03;;;;;;;;;1.00;1.00;;;;;17.17;40.26;100877.28;4854067;29;45343;-86
2022/05/29 10:45:40;;;;;;;;;1.00;1.00;;;;;17.03;40.14;100849.63;4855048;29;45311;-86
2022/05/29 10:48:44;;;;;;;;;1.33;1.00;;;;;17.28;39.65;100877.16;4835834;29;45402;-86
2022/05/29 10:51:24;;;;;;;;;2.00;1.00;;;;;17.19;37.88;100875.47;4778744;29;47313;-86
2022/05/29 10:54:18;;;;;;;;;3.00;2.00;;;;;17.23;38.81;100871.84;4779322;29;45460;-86
2022/05/29 10:57:12;;;;;;;;;1.00;1.00;;;;;17.31;38.04;100877.09;4780365;29;45295;-86
2022/05/29 11:00:02;;;;;;;;;1.67;1.67;;;;;17.27;37.34;100870.88;4798418;29;45609;-86
2022/05/29 11:05:49;;;;;;;;;3.00;1.00;;;;;17.48;37.21;100868.84;4797156;29;45573;-86
2022/05/29 11:08:54;;;;;;;;;2.00;2.00;;;;;17.69;36.62;100860.47;4801209;29;45465;-87
2022/05/29 11:11:25;;;;;;;;;1.00;1.00;;;;;17.89;36.38;100857.56;4800948;29;45819;-87
2022/05/29 11:14:38;;;;;;;;;2.67;2.67;;;;;18.20;36.72;100854.44;4800963;29;47043;-87
2022/05/29 11:17:31;;;;;;;;;2.00;2.00;;;;;18.48;36.33;100835.09;4800053;29;45532;-87
2022/05/29 11:20:12;;;;;;;;;2.67;2.67;;;;;18.72;35.52;100845.47;4799155;29;45513;-87
2022/05/29 11:23:17;;;;;;;;;3.00;3.00;;;;;18.60;36.14;100840.28;4802017;29;45363;-87
2022/05/29 11:26:12;;;;;;;;;1.00;1.00;;;;;18.48;36.50;100841.41;4800715;29;47051;-87
2022/05/29 11:29:08;;;;;;;;;2.00;2.00;;;;;18.55;36.38;100836.78;4848191;29;45459;-87
2022/05/29 11:31:47;;;;;;;;;3.67;3.00;;;;;18.76;35.60;100832.81;4858811;29;44797;-87
2022/05/29 11:34:30;;;;;;;;;1.00;1.00;;;;;18.97;35.63;100829.75;4839517;29;45393;-87
2022/05/29 11:37:20;;;;;;;;;4.00;2.00;;;;;19.24;34.95;100823.84;4856184;29;45799;-87
2022/05/29 11:39:56;;;;;;;;;1.00;1.00;;;;;19.27;32.38;100810.28;4856353;29;45387;-87
2022/05/29 11:42:26;;;;;;;;;3.00;1.00;;;;;19.27;32.98;100811.22;4842419;29;45490;-87
2022/05/29 11:45:22;;;;;;;;;2.67;2.00;;;;;19.25;33.41;100806.75;4857884;29;45650;-87
2022/05/29 11:51:08;;;;;;;;;2.00;2.00;;;;;18.91;31.51;100794.84;4857611;29;45402;-87
2022/05/29 11:53:58;;;;;;;;;1.00;1.00;;;;;18.78;31.95;100785.19;4858679;29;45510;-87
2022/05/29 11:56:42;;;;;;;;;3.00;3.00;;;;;18.68;32.67;100783.56;4872827;29;45373;-87
2022/05/29 11:59:18;;;;;;;;;1.67;1.67;;;;;18.65;33.84;100783.66;4857580;29;46920;-86
2022/05/29 12:01:50;;;;;;;;;2.00;1.00;;;;;18.64;32.73;100771.09;4857952;29;45447;-86
2022/05/29 12:04:31;;;;;;;;;1.33;1.33;;;;;18.64;32.69;100768.38;4842467;29;44731;-86
2022/05/29 12:07:12;;;;;;;;;3.00;3.00;;;;;18.84;31.84;100770.75;4861125;29;45797;-87
2022/05/29 12:09:49;;;;;;;;;1.00;1.00;;;;;18.79;32.81;100725.03;4860663;29;45794;-86
2022/05/29 12:12:26;;;;;;;;;2.00;2.00;;;;;19.14;33.42;100755.75;4860966;29;45359;-87
2022/05/29 12:14:56;;;;;;;;;1.00;1.00;;;;;19.22;33.22;100758.28;4860905;29;45348;-86
2022/05/29 12:18:00;;;;;;;;;2.00;2.00;;;;;19.12;32.27;100765.69;4860702;29;45738;-87
2022/05/29 12:20:55;;;;;;;;;1.33;1.33;;;;;18.98;31.52;100768.66;4855899;29;46728;-86
2022/05/29 12:23:29;;;;;;;;;1.00;1.00;;;;;18.92;30.92;100766.09;4856540;29;45442;-86
2022/05/29 12:26:07;;;;;;;;;3.33;2.00;;;;;18.61;29.75;100704.69;4872763;29;45425;-86
2022/05/29 12:28:54;;;;;;;;;2.67;1.67;;;;;18.95;30.66;100757.94;4874034;29;45822;-87
2022/05/29 12:31:38;;;;;;;;;1.00;1.00;;;;;19.01;31.28;100760.53;4857455;29;47573;-86
2022/05/29 12:34:05;;;;;;;;;0.00;0.00;;;;;19.11;30.56;100745.06;4857610;29;44875;-86
2022/05/29 12:36:55;;;;;;;;;2.00;2.00;;;;;19.15;30.58;100752.16;4856275;29;45402;-86
2022/05/29 12:39:34;;;;;;;;;2.00;2.00;;;;;19.10;30.50;100754.03;4856098;29;44891;-86